sensor_id;sensor_type;location;lat;lon;timestamp;pressure;altitude;pressure_sealevel;temperature;humidity
32033;BME280;31720;52.638;9.216;2022-10-26T00:02:22;101375.06;;;9.01;100.00
32033;BME280;31720;52.638;9.216;2022-10-26T00:05:24;101371.59;;;9.00;100.00
32033;BME280;31720;52.638;9.216;2022-10-26T00:08:26;101365.53;;;8.98;100.00
32033;BME280;31720;52.638;9.216;2022-10-26T00:11:28;101376.16;;;8.95;100.00
32033;BME280;31720;52.638;9.216;2022-10-26T00:14:29;101370.09;;;8.93;100.00
32033;BME280;31720;52.638;9.216;2022-10-26T00:17:30;101369.25;;;8.93;100.00
32033;BME280;31720;52.638;9.216;2022-10-26T00:20:32;101374.66;;;8.88;100.00
32033;BME280;31720;52.638;9.216;2022-10-26T00:23:35;101376.50;;;8.86;100.00
32033;BME280;31720;52.638;9.216;2022-10-26T00:26:36;101378.47;;;8.79;100.00
32033;BME280;31720;52.638;9.216;2022-10-26T00:29:38;101373.28;;;8.78;100.00
32033;BME280;31720;52.638;9.216;2022-10-26T00:32:39;101379.31;;;8.80;100.00
32033;BME280;31720;52.638;9.216;2022-10-26T00:35:41;101385.53;;;8.77;100.00
32033;BME280;31720;52.638;9.216;2022-10-26T00:38:48;101377.78;;;8.74;100.00
32033;BME280;31720;52.638;9.216;2022-10-26T00:41:49;101377.03;;;8.71;100.00
32033;BME280;31720;52.638;9.216;2022-10-26T00:44:59;101382.31;;;8.69;100.00
32033;BME280;31720;52.638;9.216;2022-10-26T00:48:03;101377.16;;;8.68;100.00
32033;BME280;31720;52.638;9.216;2022-10-26T00:51:09;101382.59;;;8.61;100.00
32033;BME280;31720;52.638;9.216;2022-10-26T00:54:16;101383.44;;;8.62;100.00
32033;BME280;31720;52.638;9.216;2022-10-26T00:57:18;101386.13;;;8.60;100.00
32033;BME280;31720;52.638;9.216;2022-10-26T01:00:20;101381.91;;;8.56;100.00
32033;BME280;31720;52.638;9.216;2022-10-26T01:03:22;101380.28;;;8.52;100.00
32033;BME280;31720;52.638;9.216;2022-10-26T01:06:25;101379.50;;;8.50;100.00
32033;BME280;31720;52.638;9.216;2022-10-26T01:09:28;101385.53;;;8.52;100.00
32033;BME280;31720;52.638;9.216;2022-10-26T01:12:30;101386.44;;;8.51;100.00
32033;BME280;31720;52.638;9.216;2022-10-26T01:15:38;101378.75;;;8.47;100.00
32033;BME280;31720;52.638;9.216;2022-10-26T01:18:49;101370.94;;;8.45;100.00
32033;BME280;31720;52.638;9.216;2022-10-26T01:21:56;101374.56;;;8.41;100.00
32033;BME280;31720;52.638;9.216;2022-10-26T01:25:12;101375.47;;;8.40;100.00
32033;BME280;31720;52.638;9.216;2022-10-26T01:28:29;101368.59;;;8.37;100.00
32033;BME280;31720;52.638;9.216;2022-10-26T01:31:40;101373.81;;;8.37;100.00
32033;BME280;31720;52.638;9.216;2022-10-26T01:34:44;101365.16;;;8.34;100.00
32033;BME280;31720;52.638;9.216;2022-10-26T01:37:53;101364.31;;;8.33;100.00
32033;BME280;31720;52.638;9.216;2022-10-26T01:41:01;101369.72;;;8.29;100.00
32033;BME280;31720;52.638;9.216;2022-10-26T01:44:07;101362.88;;;8.25;100.00
32033;BME280;31720;52.638;9.216;2022-10-26T01:47:13;101359.31;;;8.27;100.00
32033;BME280;31720;52.638;9.216;2022-10-26T01:50:17;101352.41;;;8.25;100.00
32033;BME280;31720;52.638;9.216;2022-10-26T01:53:20;101348.00;;;8.25;100.00
32033;BME280;31720;52.638;9.216;2022-10-26T01:56:24;101340.13;;;8.27;100.00
32033;BME280;31720;52.638;9.216;2022-10-26T01:59:52;101345.38;;;8.27;100.00
32033;BME280;31720;52.638;9.216;2022-10-26T02:03:05;101342.75;;;8.27;100.00
32033;BME280;31720;52.638;9.216;2022-10-26T02:06:16;101342.59;;;8.31;100.00
32033;BME280;31720;52.638;9.216;2022-10-26T02:09:25;101334.75;;;8.30;100.00
32033;BME280;31720;52.638;9.216;2022-10-26T02:12:34;101332.09;;;8.31;100.00
32033;BME280;31720;52.638;9.216;2022-10-26T02:15:46;101334.66;;;8.33;100.00
32033;BME280;31720;52.638;9.216;2022-10-26T02:18:55;101328.56;;;8.32;100.00
32033;BME280;31720;52.638;9.216;2022-10-26T02:22:05;101322.50;;;8.32;100.00
32033;BME280;31720;52.638;9.216;2022-10-26T02:25:15;101324.09;;;8.36;100.00
32033;BME280;31720;52.638;9.216;2022-10-26T02:28:20;101325.91;;;8.34;100.00
32033;BME280;31720;52.638;9.216;2022-10-26T02:31:24;101323.34;;;8.32;100.00
32033;BME280;31720;52.638;9.216;2022-10-26T02:34:29;101318.94;;;8.33;100.00
32033;BME280;31720;52.638;9.216;2022-10-26T02:37:32;101312.88;;;8.32;100.00
32033;BME280;31720;52.638;9.216;2022-10-26T02:40:36;101311.94;;;8.33;100.00
32033;BME280;31720;52.638;9.216;2022-10-26T02:43:42;101309.31;;;8.33;100.00
32033;BME280;31720;52.638;9.216;2022-10-26T02:46:45;101303.31;;;8.31;100.00
32033;BME280;31720;52.638;9.216;2022-10-26T02:49:48;101299.81;;;8.31;100.00
32033;BME280;31720;52.638;9.216;2022-10-26T02:52:56;101304.19;;;8.30;100.00
32033;BME280;31720;52.638;9.216;2022-10-26T02:56:05;101298.09;;;8.30;100.00
32033;BME280;31720;52.638;9.216;2022-10-26T02:59:10;101296.41;;;8.29;100.00
32033;BME280;31720;52.638;9.216;2022-10-26T03:02:13;101296.41;;;8.29;100.00
32033;BME280;31720;52.638;9.216;2022-10-26T03:05:19;101293.78;;;8.29;100.00
32033;BME280;31720;52.638;9.216;2022-10-26T03:08:22;101296.41;;;8.29;100.00
32033;BME280;31720;52.638;9.216;2022-10-26T03:11:24;101291.16;;;8.29;100.00
32033;BME280;31720;52.638;9.216;2022-10-26T03:14:25;101287.78;;;8.25;100.00
32033;BME280;31720;52.638;9.216;2022-10-26T03:17:26;101286.84;;;8.28;100.00
32033;BME280;31720;52.638;9.216;2022-10-26T03:20:29;101292.88;;;8.30;100.00
32033;BME280;31720;52.638;9.216;2022-10-26T03:23:31;101291.22;;;8.27;100.00
32033;BME280;31720;52.638;9.216;2022-10-26T03:26:32;101286.94;;;8.25;100.00
32033;BME280;31720;52.638;9.216;2022-10-26T03:29:34;101285.16;;;8.25;100.00
32033;BME280;31720;52.638;9.216;2022-10-26T03:32:35;101282.63;;;8.24;100.00
32033;BME280;31720;52.638;9.216;2022-10-26T03:35:39;101279.16;;;8.23;100.00
32033;BME280;31720;52.638;9.216;2022-10-26T03:38:40;101274.81;;;8.22;100.00
32033;BME280;31720;52.638;9.216;2022-10-26T03:41:42;101271.44;;;8.19;100.00
32033;BME280;31720;52.638;9.216;2022-10-26T03:44:43;101273.22;;;8.18;100.00
32033;BME280;31720;52.638;9.216;2022-10-26T03:47:47;101276.78;;;8.16;100.00
32033;BME280;31720;52.638;9.216;2022-10-26T03:50:50;101269.03;;;8.12;100.00
32033;BME280;31720;52.638;9.216;2022-10-26T03:53:51;101272.56;;;8.11;100.00
32033;BME280;31720;52.638;9.216;2022-10-26T03:56:53;101276.19;;;8.07;100.00
32033;BME280;31720;52.638;9.216;2022-10-26T03:59:54;101265.72;;;8.07;100.00
32033;BME280;31720;52.638;9.216;2022-10-26T04:02:58;101262.34;;;8.04;100.00
32033;BME280;31720;52.638;9.216;2022-10-26T04:06:02;101260.66;;;8.03;100.00
32033;BME280;31720;52.638;9.216;2022-10-26T04:09:03;101274.59;;;8.03;100.00
32033;BME280;31720;52.638;9.216;2022-10-26T04:12:07;101269.47;;;8.00;100.00
32033;BME280;31720;52.638;9.216;2022-10-26T04:15:09;101268.72;;;7.97;100.00
32033;BME280;31720;52.638;9.216;2022-10-26T04:18:10;101269.66;;;7.94;100.00
32033;BME280;31720;52.638;9.216;2022-10-26T04:21:14;101265.50;;;7.88;100.00
32033;BME280;31720;52.638;9.216;2022-10-26T04:24:15;101267.31;;;7.86;100.00
32033;BME280;31720;52.638;9.216;2022-10-26T04:27:17;101272.59;;;7.85;100.00
32033;BME280;31720;52.638;9.216;2022-10-26T04:30:18;101269.19;;;7.83;100.00
32033;BME280;31720;52.638;9.216;2022-10-26T04:33:20;101264.91;;;7.80;100.00
32033;BME280;31720;52.638;9.216;2022-10-26T04:36:22;101272.75;;;7.80;100.00
32033;BME280;31720;52.638;9.216;2022-10-26T04:39:24;101273.66;;;7.79;100.00
32033;BME280;31720;52.638;9.216;2022-10-26T04:42:25;101272.00;;;7.77;100.00
32033;BME280;31720;52.638;9.216;2022-10-26T04:45:27;101266.78;;;7.77;100.00
32033;BME280;31720;52.638;9.216;2022-10-26T04:48:29;101271.13;;;7.76;100.00
32033;BME280;31720;52.638;9.216;2022-10-26T04:51:32;101269.50;;;7.74;100.00
32033;BME280;31720;52.638;9.216;2022-10-26T04:54:34;101266.81;;;7.75;100.00
32033;BME280;31720;52.638;9.216;2022-10-26T04:57:35;101263.50;;;7.70;100.00
32033;BME280;31720;52.638;9.216;2022-10-26T05:00:36;101260.97;;;7.67;100.00
32033;BME280;31720;52.638;9.216;2022-10-26T05:03:38;101262.72;;;7.67;100.00
32033;BME280;31720;52.638;9.216;2022-10-26T05:06:41;101261.09;;;7.64;100.00
32033;BME280;31720;52.638;9.216;2022-10-26T05:09:42;101262.81;;;7.65;100.00
32033;BME280;31720;52.638;9.216;2022-10-26T05:12:49;101256.72;;;7.65;100.00
32033;BME280;31720;52.638;9.216;2022-10-26T05:15:51;101260.41;;;7.59;100.00
32033;BME280;31720;52.638;9.216;2022-10-26T05:18:53;101257.81;;;7.57;100.00
32033;BME280;31720;52.638;9.216;2022-10-26T05:21:56;101254.44;;;7.54;100.00
32033;BME280;31720;52.638;9.216;2022-10-26T05:24:57;101257.94;;;7.54;100.00
32033;BME280;31720;52.638;9.216;2022-10-26T05:27:59;101260.47;;;7.56;100.00
32033;BME280;31720;52.638;9.216;2022-10-26T05:31:01;101256.16;;;7.55;100.00
32033;BME280;31720;52.638;9.216;2022-10-26T05:34:03;101247.41;;;7.56;100.00
32033;BME280;31720;52.638;9.216;2022-10-26T05:37:05;101249.94;;;7.59;100.00
32033;BME280;31720;52.638;9.216;2022-10-26T05:40:08;101259.41;;;7.61;100.00
32033;BME280;31720;52.638;9.216;2022-10-26T05:43:10;101266.31;;;7.64;100.00
32033;BME280;31720;52.638;9.216;2022-10-26T05:46:11;101267.19;;;7.65;100.00
32033;BME280;31720;52.638;9.216;2022-10-26T05:49:12;101265.41;;;7.65;100.00
32033;BME280;31720;52.638;9.216;2022-10-26T05:52:16;101271.56;;;7.64;100.00
32033;BME280;31720;52.638;9.216;2022-10-26T05:55:18;101273.31;;;7.63;100.00
32033;BME280;31720;52.638;9.216;2022-10-26T05:58:20;101274.19;;;7.62;100.00
32033;BME280;31720;52.638;9.216;2022-10-26T06:01:29;101278.69;;;7.59;100.00
32033;BME280;31720;52.638;9.216;2022-10-26T06:04:36;101280.44;;;7.58;100.00
32033;BME280;31720;52.638;9.216;2022-10-26T06:07:40;101276.09;;;7.59;100.00
32033;BME280;31720;52.638;9.216;2022-10-26T06:10:42;101280.41;;;7.60;100.00
32033;BME280;31720;52.638;9.216;2022-10-26T06:13:44;101285.66;;;7.58;100.00
32033;BME280;31720;52.638;9.216;2022-10-26T06:16:58;101289.25;;;7.56;100.00
32033;BME280;31720;52.638;9.216;2022-10-26T06:20:15;101287.56;;;7.53;100.00
32033;BME280;31720;52.638;9.216;2022-10-26T06:23:37;101293.66;;;7.54;100.00
32033;BME280;31720;52.638;9.216;2022-10-26T06:26:45;101290.16;;;7.55;100.00
32033;BME280;31720;52.638;9.216;2022-10-26T06:29:55;101297.09;;;7.56;100.00
32033;BME280;31720;52.638;9.216;2022-10-26T06:32:59;101297.88;;;7.58;100.00
32033;BME280;31720;52.638;9.216;2022-10-26T06:36:10;101299.66;;;7.57;100.00
32033;BME280;31720;52.638;9.216;2022-10-26T06:39:15;101301.28;;;7.61;100.00
32033;BME280;31720;52.638;9.216;2022-10-26T06:42:18;101299.47;;;7.63;100.00
32033;BME280;31720;52.638;9.216;2022-10-26T06:45:20;101309.81;;;7.67;100.00
32033;BME280;31720;52.638;9.216;2022-10-26T06:48:24;101308.88;;;7.69;100.00
32033;BME280;31720;52.638;9.216;2022-10-26T06:51:28;101310.53;;;7.72;100.00
32033;BME280;31720;52.638;9.216;2022-10-26T06:54:46;101310.34;;;7.78;100.00
32033;BME280;31720;52.638;9.216;2022-10-26T06:57:48;101309.22;;;7.85;100.00
32033;BME280;31720;52.638;9.216;2022-10-26T07:00:52;101305.41;;;7.95;100.00
32033;BME280;31720;52.638;9.216;2022-10-26T07:03:54;101306.13;;;8.00;100.00
32033;BME280;31720;52.638;9.216;2022-10-26T07:06:56;101311.88;;;8.10;100.00
32033;BME280;31720;52.638;9.216;2022-10-26T07:09:58;101308.84;;;8.22;100.00
32033;BME280;31720;52.638;9.216;2022-10-26T07:13:01;101309.41;;;8.32;100.00
32033;BME280;31720;52.638;9.216;2022-10-26T07:16:02;101309.13;;;8.39;100.00
32033;BME280;31720;52.638;9.216;2022-10-26T07:19:04;101301.88;;;8.48;100.00
32033;BME280;31720;52.638;9.216;2022-10-26T07:22:05;101308.53;;;8.56;100.00
32033;BME280;31720;52.638;9.216;2022-10-26T07:25:09;101309.97;;;8.65;100.00
32033;BME280;31720;52.638;9.216;2022-10-26T07:28:11;101314.81;;;8.76;100.00
32033;BME280;31720;52.638;9.216;2022-10-26T07:31:13;101311.13;;;8.81;100.00
32033;BME280;31720;52.638;9.216;2022-10-26T07:34:14;101307.38;;;8.88;100.00
32033;BME280;31720;52.638;9.216;2022-10-26T07:37:16;101314.94;;;8.96;100.00
32033;BME280;31720;52.638;9.216;2022-10-26T07:40:18;101313.78;;;9.03;100.00
32033;BME280;31720;52.638;9.216;2022-10-26T07:43:20;101317.97;;;9.09;100.00
32033;BME280;31720;52.638;9.216;2022-10-26T07:46:21;101326.50;;;9.14;100.00
32033;BME280;31720;52.638;9.216;2022-10-26T07:49:23;101321.88;;;9.21;100.00
32033;BME280;31720;52.638;9.216;2022-10-26T07:52:24;101331.22;;;9.28;100.00
32033;BME280;31720;52.638;9.216;2022-10-26T07:55:27;101327.44;;;9.35;100.00
32033;BME280;31720;52.638;9.216;2022-10-26T07:58:28;101329.03;;;9.39;100.00
32033;BME280;31720;52.638;9.216;2022-10-26T08:01:30;101336.69;;;9.45;100.00
32033;BME280;31720;52.638;9.216;2022-10-26T08:04:31;101324.16;;;9.52;100.00
32033;BME280;31720;52.638;9.216;2022-10-26T08:07:33;101333.50;;;9.59;100.00
32033;BME280;31720;52.638;9.216;2022-10-26T08:10:35;101337.59;;;9.66;100.00
32033;BME280;31720;52.638;9.216;2022-10-26T08:13:37;101337.34;;;9.72;100.00
32033;BME280;31720;52.638;9.216;2022-10-26T08:16:38;101330.16;;;9.77;100.00
32033;BME280;31720;52.638;9.216;2022-10-26T08:19:40;101338.72;;;9.81;100.00
32033;BME280;31720;52.638;9.216;2022-10-26T08:22:41;101334.16;;;9.86;100.00
32033;BME280;31720;52.638;9.216;2022-10-26T08:25:44;101326.09;;;9.90;100.00
32033;BME280;31720;52.638;9.216;2022-10-26T08:28:47;101321.38;;;9.99;100.00
32033;BME280;31720;52.638;9.216;2022-10-26T08:31:49;101327.34;;;10.02;100.00
32033;BME280;31720;52.638;9.216;2022-10-26T08:34:50;101317.50;;;10.07;100.00
32033;BME280;31720;52.638;9.216;2022-10-26T08:37:52;101320.66;;;10.15;100.00
32033;BME280;31720;52.638;9.216;2022-10-26T08:40:56;101314.13;;;10.26;100.00
32033;BME280;31720;52.638;9.216;2022-10-26T08:44:01;101308.44;;;10.36;100.00
32033;BME280;31720;52.638;9.216;2022-10-26T08:47:10;101307.22;;;10.44;100.00
32033;BME280;31720;52.638;9.216;2022-10-26T08:50:17;101303.50;;;10.49;100.00
32033;BME280;31720;52.638;9.216;2022-10-26T08:53:28;101302.38;;;10.55;100.00
32033;BME280;31720;52.638;9.216;2022-10-26T08:56:37;101299.34;;;10.64;100.00
32033;BME280;31720;52.638;9.216;2022-10-26T08:59:44;101299.97;;;10.69;100.00
32033;BME280;31720;52.638;9.216;2022-10-26T09:02:48;101302.41;;;10.74;100.00
32033;BME280;31720;52.638;9.216;2022-10-26T09:06:01;101301.34;;;10.78;100.00
32033;BME280;31720;52.638;9.216;2022-10-26T09:09:09;101306.50;;;10.79;100.00
32033;BME280;31720;52.638;9.216;2022-10-26T09:12:19;101309.94;;;10.81;100.00
32033;BME280;31720;52.638;9.216;2022-10-26T09:15:32;101304.53;;;10.84;100.00
32033;BME280;31720;52.638;9.216;2022-10-26T09:18:43;101303.47;;;10.88;100.00
32033;BME280;31720;52.638;9.216;2022-10-26T09:21:52;101308.38;;;10.96;100.00
32033;BME280;31720;52.638;9.216;2022-10-26T09:24:56;101307.25;;;11.02;100.00
32033;BME280;31720;52.638;9.216;2022-10-26T09:28:02;101309.53;;;11.09;100.00
32033;BME280;31720;52.638;9.216;2022-10-26T09:31:04;101303.75;;;11.20;100.00
32033;BME280;31720;52.638;9.216;2022-10-26T09:34:06;101303.44;;;11.26;100.00
32033;BME280;31720;52.638;9.216;2022-10-26T09:37:17;101303.09;;;11.34;100.00
32033;BME280;31720;52.638;9.216;2022-10-26T09:40:24;101305.16;;;11.46;100.00
32033;BME280;31720;52.638;9.216;2022-10-26T09:43:34;101302.94;;;11.56;100.00
32033;BME280;31720;52.638;9.216;2022-10-26T09:46:45;101299.75;;;11.66;100.00
32033;BME280;31720;52.638;9.216;2022-10-26T09:49:51;101298.63;;;11.72;100.00
32033;BME280;31720;52.638;9.216;2022-10-26T09:52:54;101303.50;;;11.80;100.00
32033;BME280;31720;52.638;9.216;2022-10-26T09:56:00;101302.00;;;11.93;100.00
32033;BME280;31720;52.638;9.216;2022-10-26T09:59:06;101310.06;;;12.07;100.00
32033;BME280;31720;52.638;9.216;2022-10-26T10:02:36;101313.06;;;12.17;100.00
32033;BME280;31720;52.638;9.216;2022-10-26T10:05:37;101313.31;;;12.30;100.00
32033;BME280;31720;52.638;9.216;2022-10-26T10:08:39;101313.84;;;12.36;100.00
32033;BME280;31720;52.638;9.216;2022-10-26T10:11:43;101307.25;;;12.45;100.00
32033;BME280;31720;52.638;9.216;2022-10-26T10:14:58;101311.00;;;12.57;100.00
32033;BME280;31720;52.638;9.216;2022-10-26T10:17:59;101310.53;;;12.66;100.00
32033;BME280;31720;52.638;9.216;2022-10-26T10:21:01;101299.59;;;12.74;100.00
32033;BME280;31720;52.638;9.216;2022-10-26T10:24:24;101304.53;;;12.80;100.00
32033;BME280;31720;52.638;9.216;2022-10-26T10:27:27;101306.75;;;12.87;100.00
32033;BME280;31720;52.638;9.216;2022-10-26T10:30:32;101316.97;;;12.93;100.00
32033;BME280;31720;52.638;9.216;2022-10-26T10:33:36;101313.22;;;12.98;100.00
32033;BME280;31720;52.638;9.216;2022-10-26T10:36:38;101310.19;;;13.05;100.00
32033;BME280;31720;52.638;9.216;2022-10-26T10:39:40;101313.41;;;13.10;100.00
32033;BME280;31720;52.638;9.216;2022-10-26T10:42:43;101317.75;;;13.11;100.00
32033;BME280;31720;52.638;9.216;2022-10-26T10:45:48;101318.44;;;13.15;100.00
32033;BME280;31720;52.638;9.216;2022-10-26T10:48:53;101319.03;;;13.20;100.00
32033;BME280;31720;52.638;9.216;2022-10-26T10:51:56;101324.19;;;13.23;100.00
32033;BME280;31720;52.638;9.216;2022-10-26T10:55:13;101329.22;;;13.28;100.00
32033;BME280;31720;52.638;9.216;2022-10-26T10:58:22;101335.78;;;13.36;100.00
32033;BME280;31720;52.638;9.216;2022-10-26T11:01:30;101333.63;;;13.43;100.00
32033;BME280;31720;52.638;9.216;2022-10-26T11:04:43;101341.97;;;13.51;100.00
32033;BME280;31720;52.638;9.216;2022-10-26T11:07:53;101342.31;;;13.61;100.00
32033;BME280;31720;52.638;9.216;2022-10-26T11:10:59;101339.72;;;13.75;100.00
32033;BME280;31720;52.638;9.216;2022-10-26T11:14:04;101342.69;;;13.85;100.00
32033;BME280;31720;52.638;9.216;2022-10-26T11:17:14;101346.44;;;13.96;100.00
32033;BME280;31720;52.638;9.216;2022-10-26T11:20:21;101353.56;;;14.10;100.00
32033;BME280;31720;52.638;9.216;2022-10-26T11:23:30;101349.09;;;14.27;100.00
32033;BME280;31720;52.638;9.216;2022-10-26T11:26:34;101351.84;;;14.39;100.00
32033;BME280;31720;52.638;9.216;2022-10-26T11:29:43;101358.47;;;14.46;100.00
32033;BME280;31720;52.638;9.216;2022-10-26T11:32:52;101356.53;;;14.50;100.00
32033;BME280;31720;52.638;9.216;2022-10-26T11:35:57;101354.56;;;14.54;100.00
32033;BME280;31720;52.638;9.216;2022-10-26T11:39:08;101363.97;;;14.58;100.00
32033;BME280;31720;52.638;9.216;2022-10-26T11:42:19;101361.00;;;14.64;100.00
32033;BME280;31720;52.638;9.216;2022-10-26T11:45:24;101363.81;;;14.75;100.00
32033;BME280;31720;52.638;9.216;2022-10-26T11:48:34;101364.03;;;15.01;100.00
32033;BME280;31720;52.638;9.216;2022-10-26T11:51:37;101361.41;;;15.42;100.00
32033;BME280;31720;52.638;9.216;2022-10-26T11:54:45;101363.78;;;15.88;100.00
32033;BME280;31720;52.638;9.216;2022-10-26T11:57:49;101359.47;;;16.12;100.00
32033;BME280;31720;52.638;9.216;2022-10-26T12:00:54;101362.09;;;16.27;100.00
32033;BME280;31720;52.638;9.216;2022-10-26T12:03:59;101351.06;;;16.33;100.00
32033;BME280;31720;52.638;9.216;2022-10-26T12:07:05;101343.28;;;16.30;100.00
32033;BME280;31720;52.638;9.216;2022-10-26T12:10:18;101347.50;;;16.07;100.00
32033;BME280;31720;52.638;9.216;2022-10-26T12:13:27;101355.97;;;15.99;100.00
32033;BME280;31720;52.638;9.216;2022-10-26T12:16:41;101353.22;;;16.01;100.00
32033;BME280;31720;52.638;9.216;2022-10-26T12:19:51;101358.63;;;15.99;100.00
32033;BME280;31720;52.638;9.216;2022-10-26T12:22:55;101354.25;;;15.98;100.00
32033;BME280;31720;52.638;9.216;2022-10-26T12:29:37;101362.31;;;15.96;100.00
32033;BME280;31720;52.638;9.216;2022-10-26T12:32:51;101363.09;;;16.11;100.00
32033;BME280;31720;52.638;9.216;2022-10-26T12:35:54;101376.09;;;16.29;100.00
32033;BME280;31720;52.638;9.216;2022-10-26T12:38:56;101371.84;;;16.39;100.00
32033;BME280;31720;52.638;9.216;2022-10-26T12:42:17;101376.34;;;16.51;100.00
32033;BME280;31720;52.638;9.216;2022-10-26T12:45:27;101370.91;;;16.65;100.00
32033;BME280;31720;52.638;9.216;2022-10-26T12:48:38;101374.78;;;16.74;100.00
32033;BME280;31720;52.638;9.216;2022-10-26T12:51:44;101374.03;;;16.85;100.00
32033;BME280;31720;52.638;9.216;2022-10-26T12:54:55;101363.91;;;17.03;100.00
32033;BME280;31720;52.638;9.216;2022-10-26T13:01:38;101355.13;;;17.39;100.00
32033;BME280;31720;52.638;9.216;2022-10-26T13:08:19;101351.78;;;17.61;100.00
32033;BME280;31720;52.638;9.216;2022-10-26T13:11:26;101351.94;;;17.70;100.00
32033;BME280;31720;52.638;9.216;2022-10-26T13:14:32;101351.53;;;17.77;100.00
32033;BME280;31720;52.638;9.216;2022-10-26T13:17:34;101356.09;;;17.74;100.00
32033;BME280;31720;52.638;9.216;2022-10-26T13:20:51;101362.38;;;17.73;100.00
32033;BME280;31720;52.638;9.216;2022-10-26T13:23:59;101353.00;;;17.81;100.00
32033;BME280;31720;52.638;9.216;2022-10-26T13:27:39;101349.66;;;17.90;100.00
32033;BME280;31720;52.638;9.216;2022-10-26T13:30:46;101347.03;;;18.01;100.00
32033;BME280;31720;52.638;9.216;2022-10-26T13:33:49;101338.88;;;18.15;100.00
32033;BME280;31720;52.638;9.216;2022-10-26T13:36:58;101351.72;;;18.21;100.00
32033;BME280;31720;52.638;9.216;2022-10-26T13:40:04;101348.59;;;18.28;100.00
32033;BME280;31720;52.638;9.216;2022-10-26T13:43:14;101348.09;;;18.22;100.00
32033;BME280;31720;52.638;9.216;2022-10-26T13:46:31;101346.75;;;18.17;100.00
32033;BME280;31720;52.638;9.216;2022-10-26T13:49:37;101361.00;;;18.16;100.00
32033;BME280;31720;52.638;9.216;2022-10-26T13:52:41;101361.69;;;18.07;100.00
32033;BME280;31720;52.638;9.216;2022-10-26T13:55:49;101367.47;;;18.00;100.00
32033;BME280;31720;52.638;9.216;2022-10-26T13:58:56;101373.25;;;17.94;100.00
32033;BME280;31720;52.638;9.216;2022-10-26T14:02:07;101376.75;;;17.95;100.00
32033;BME280;31720;52.638;9.216;2022-10-26T14:05:09;101379.25;;;17.85;100.00
32033;BME280;31720;52.638;9.216;2022-10-26T14:08:15;101371.53;;;17.69;100.00
32033;BME280;31720;52.638;9.216;2022-10-26T14:11:20;101374.22;;;17.57;100.00
32033;BME280;31720;52.638;9.216;2022-10-26T14:14:25;101381.88;;;17.48;100.00
32033;BME280;31720;52.638;9.216;2022-10-26T14:17:28;101387.34;;;17.34;100.00
32033;BME280;31720;52.638;9.216;2022-10-26T14:20:30;101385.88;;;17.30;100.00
32033;BME280;31720;52.638;9.216;2022-10-26T14:23:34;101397.38;;;17.31;100.00
32033;BME280;31720;52.638;9.216;2022-10-26T14:26:39;101402.13;;;17.25;100.00
32033;BME280;31720;52.638;9.216;2022-10-26T14:29:41;101401.94;;;17.29;100.00
32033;BME280;31720;52.638;9.216;2022-10-26T14:32:42;101403.84;;;17.27;100.00
32033;BME280;31720;52.638;9.216;2022-10-26T14:35:44;101413.97;;;17.21;100.00
32033;BME280;31720;52.638;9.216;2022-10-26T14:38:48;101414.25;;;17.30;100.00
32033;BME280;31720;52.638;9.216;2022-10-26T14:41:54;101410.03;;;17.27;100.00
32033;BME280;31720;52.638;9.216;2022-10-26T14:44:56;101413.97;;;17.21;100.00
32033;BME280;31720;52.638;9.216;2022-10-26T14:47:59;101418.41;;;17.21;100.00
32033;BME280;31720;52.638;9.216;2022-10-26T14:51:09;101415.22;;;17.16;100.00
32033;BME280;31720;52.638;9.216;2022-10-26T14:54:19;101420.66;;;17.02;100.00
32033;BME280;31720;52.638;9.216;2022-10-26T14:57:30;101426.59;;;16.92;100.00
32033;BME280;31720;52.638;9.216;2022-10-26T15:00:33;101431.69;;;16.83;100.00
32033;BME280;31720;52.638;9.216;2022-10-26T15:03:34;101428.91;;;16.71;100.00
32033;BME280;31720;52.638;9.216;2022-10-26T15:06:44;101424.84;;;16.66;100.00
32033;BME280;31720;52.638;9.216;2022-10-26T15:09:47;101428.03;;;16.58;100.00
32033;BME280;31720;52.638;9.216;2022-10-26T15:12:50;101422.41;;;16.50;100.00
32033;BME280;31720;52.638;9.216;2022-10-26T15:15:52;101428.41;;;16.39;100.00
32033;BME280;31720;52.638;9.216;2022-10-26T15:18:56;101431.59;;;16.32;100.00
32033;BME280;31720;52.638;9.216;2022-10-26T15:21:58;101429.44;;;16.24;100.00
32033;BME280;31720;52.638;9.216;2022-10-26T15:25:01;101432.50;;;16.18;100.00
32033;BME280;31720;52.638;9.216;2022-10-26T15:28:09;101434.38;;;16.16;100.00
32033;BME280;31720;52.638;9.216;2022-10-26T15:31:27;101437.44;;;16.10;100.00
32033;BME280;31720;52.638;9.216;2022-10-26T15:34:30;101432.63;;;16.02;100.00
32033;BME280;31720;52.638;9.216;2022-10-26T15:37:31;101447.16;;;15.96;100.00
32033;BME280;31720;52.638;9.216;2022-10-26T15:40:32;101443.19;;;15.89;100.00
32033;BME280;31720;52.638;9.216;2022-10-26T15:43:37;101440.19;;;15.81;100.00
32033;BME280;31720;52.638;9.216;2022-10-26T15:46:39;101449.78;;;15.69;100.00
32033;BME280;31720;52.638;9.216;2022-10-26T15:49:40;101451.94;;;15.63;100.00
32033;BME280;31720;52.638;9.216;2022-10-26T15:52:42;101451.47;;;15.56;100.00
32033;BME280;31720;52.638;9.216;2022-10-26T15:55:43;101460.66;;;15.51;100.00
32033;BME280;31720;52.638;9.216;2022-10-26T15:58:46;101464.63;;;15.43;100.00
32033;BME280;31720;52.638;9.216;2022-10-26T16:01:48;101461.91;;;15.45;100.00
32033;BME280;31720;52.638;9.216;2022-10-26T16:04:51;101467.38;;;15.42;100.00
32033;BME280;31720;52.638;9.216;2022-10-26T16:07:52;101473.91;;;15.36;100.00
32033;BME280;31720;52.638;9.216;2022-10-26T16:10:54;101472.38;;;15.32;100.00
32033;BME280;31720;52.638;9.216;2022-10-26T16:13:57;101479.66;;;15.29;100.00